Stige, Denmark
Current Conditions -  °F | °C
As of 4:50 PM on Sunday 25 Jan 2015 (Local Time) from EKSB Reporting Station
Clear Clear  
Wind Chill: 33°   Ceiling: Unl
Heat Index: 37°   Visibility: 6mi
Dew Point: 37°   Wind: 6mph
Humidity: 100%   Direction: 240°WSW
Pressure: 30.21"   Gusts: NA
Location:  55.44°N, 10.41°E
Report Text: EKSB 251550Z 24005KT CAVOK 03/03 Q1023
Loading
Personal Weather Stations






























Interactive Weather Map New forecast layout! Learn more

10-Day Weather Forecast

Advertisements
Track Severe Weather on mobile